LGW weather

London Gatwick Airport
London, England, United Kingdom

Public forecast

Using degrees Celsius for public forecast. Weather courtesy of forecast.io.

METAR (pilot weather report)

Retrieved 2018/12/13 04:20 UTC (31 seconds ago):

EGKK 130420Z 07008KT 5000 BR FEW024 M00/M01 Q1016

TAF (pilot weather forecast)

Forecast is more than 12 hours old.

Retrieved 2018/12/12 00:00 UTC (1 day ago):

TAF EGKK 122254Z 1300/1406 10008KT 9999 SCT018 PROB30 1300/1309 8000 PROB30 1321/1406 6000